Aérodrome :
LOGIN :

S'inscrire | Disclaimer

   EN    FR    IT 

 










Légende :    VFR   VFR Marginal   IFR   IFR Intensif   IFR Très Intensif
Visi : 
Plafond : 
>= 8 km
>= 3000ft
5 à 8 km
1000 à 3000 ft
1500m à 5 km
500 à 1000 ft
800 à 1500m
200 à 500 ft
< 800m
< 200 ft
Symboles :   Orages  Brouillard  Fortes neiges  Fortes précipitations  Vent > 20 kt
SIGMETs :   Divers  Orages  Givrage  Turbulence  Onde Orograph.  Cendres Volcan.






- Altitude de l'aérodrome : 1106 ft


LFSO - Nancy / Ochey

DERNIER METAR :
  • 110430Z AUTO 18008KT 9999 BKN049/// BKN064/// OVC080/// ///TCU 04/M02 Q1014

METARs EXPIRÉS :
  • 110400Z AUTO 17009KT 9999 FEW046 BKN066 OVC084 03/M01 Q1014
  • 110330Z AUTO 17009KT CAVOK 03/M01 Q1015
  • 110300Z AUTO 19010KT CAVOK 03/M01 Q1015 BECMG 4500 -RA
  • 110230Z AUTO 19010KT CAVOK 03/M01 Q1016 BECMG 4500 -RA
  • 110200Z AUTO 20011KT CAVOK 03/M01 Q1016 NOSIG

TAF TAF LFSO
Valide du 11 à 03h jusqu'au 12 à 03h UTC


110200Z 1103/1203 18010KT CAVOK
BECMG 1103/1105 4500 -RA
BECMG 1108/1110 2500 DZRA OVC010
BECMG 1113/1116 6000 NSW BKN005 OVC007
TEMPO 1116/1120 BKN003 OVC005
BECMG 1120/1122 OVC010
TEMPO 1200/1203 4000 -SHRA



MET'MAP, la Météo Aéronautique d'un coup d'oeil ! - Copyright ORBIFLY Décembre 2007 - Disclaimer

ORBIFLY MET'MAP TEAM :

Programmation & Développement : Alexandra Zaïnal
Sur une idée originale de : Baudouin d'Aumeries
Assistance à la programmation : Marc-Olivier Méhu
Soutien technique & logistique : Manuel Goepfert

Contact : metmap@orbifly.com




SOURCES & CREDITS :

   NOAA